Time;durP1;ratioP1;P1;durP2;ratioP2;P2;SDS_P1;SDS_P2;PMS_P1;PMS_P2;Temp;Humidity;BMP_temperature;BMP_pressure;BME280_temperature;BME280_humidity;BME280_pressure;Samples;Min_cycle;Max_cycle;Signal;HPM_P1;HPM_P2
2023/12/30 00:01:01;;;;;;;13.13;2.03;;;;;;;;;;5097065;28;20911;-85
2023/12/30 00:03:27;;;;;;;12.55;2.20;;;;;;;;;;5096057;28;20424;-85
2023/12/30 00:05:53;;;;;;;12.23;2.37;;;;;;;;;;5080170;27;20396;-84
2023/12/30 00:14:43;;;;;;;10.55;1.95;;;;;;;;;;5106773;27;20402;-87
2023/12/30 00:17:32;;;;;;;8.70;1.88;;;6.50;99.90;;;;;;5096417;28;20599;-87
2023/12/30 00:20:01;;;;;;;8.25;1.77;;;;;;;;;;5094660;28;20419;-87
2023/12/30 00:22:28;;;;;;;10.73;2.30;;;;;;;;;;5087909;28;20408;-87
2023/12/30 00:25:00;;;;;;;11.40;2.28;;;;;;;;;;5095073;28;20828;-87
2023/12/30 00:27:26;;;;;;;10.43;2.05;;;;;;;;;;5094216;28;20400;-87
2023/12/30 00:30:13;;;;;;;8.88;1.90;;;;;;;;;;5109055;27;20410;-87
2023/12/30 00:36:03;;;;;;;8.63;2.10;;;;;;;;;;5072992;28;20388;-87
2023/12/30 00:38:35;;;;;;;10.95;2.17;;;;;;;;;;5053201;28;20435;-86
2023/12/30 00:41:11;;;;;;;11.40;2.73;;;;;;;;;;5054173;28;20435;-87
2023/12/30 00:43:58;;;;;;;12.63;3.00;;;;;;;;;;5053903;28;20408;-87
2023/12/30 00:46:25;;;;;;;11.15;2.08;;;;;;;;;;5052643;28;20402;-87
2023/12/30 00:49:15;;;;;;;11.37;2.27;;;6.40;99.90;;;;;;5079884;28;20469;-83
2023/12/30 00:51:41;;;;;;;10.70;2.25;;;;;;;;;;5037203;28;20439;-87
2023/12/30 00:54:07;;;;;;;11.85;2.45;;;;;;;;;;5053768;28;20509;-87
2023/12/30 00:56:42;;;;;;;7.83;2.10;;;;;;;;;;5037537;28;20535;-83
2023/12/30 00:59:08;;;;;;;8.02;1.70;;;;;;;;;;5039739;28;20801;-85
2023/12/30 01:01:34;;;;;;;10.45;1.92;;;;;;;;;;5086304;28;20499;-86
2023/12/30 01:04:05;;;;;;;7.82;2.10;;;;;;;;;;5056911;28;20414;-87
2023/12/30 01:06:37;;;;;;;10.90;2.13;;;;;;;;;;5072852;28;20398;-87
2023/12/30 01:09:03;;;;;;;7.72;2.25;;;;;;;;;;5094706;28;20496;-86
2023/12/30 01:11:35;;;;;;;8.43;2.10;;;;;;;;;;5091937;28;20424;-87
2023/12/30 01:14:04;;;;;;;14.18;1.90;;;;;;;;;;5104192;28;20405;-87
2023/12/30 01:16:37;;;;;;;11.68;1.88;;;;;;;;;;5103339;28;20533;-88
2023/12/30 01:19:04;;;;;;;9.47;2.00;;;;;;;;;;5097810;28;20518;-87
2023/12/30 01:21:30;;;;;;;10.48;1.63;;;;;;;;;;5114734;28;20555;-87
2023/12/30 01:23:56;;;;;;;8.13;1.88;;;;;;;;;;5095428;28;20406;-87
2023/12/30 01:26:22;;;;;;;7.60;1.77;;;;;;;;;;5086508;28;20491;-87
2023/12/30 01:28:51;;;;;;;12.00;2.03;;;;;;;;;;5061585;28;20908;-87
2023/12/30 01:31:23;;;;;;;7.32;1.65;;;;;;;;;;5087418;28;20782;-86
2023/12/30 01:34:04;;;;;;;10.73;2.13;;;;;;;;;;5090293;28;20501;-87
2023/12/30 01:36:31;;;;;;;9.55;2.05;;;;;;;;;;5069823;28;20413;-87
2023/12/30 01:39:06;;;;;;;9.43;1.87;;;;;;;;;;5094426;28;20407;-86
2023/12/30 01:41:38;;;;;;;8.90;1.50;;;;;;;;;;5103380;28;20496;-86
2023/12/30 01:44:04;;;;;;;9.48;1.90;;;;;;;;;;5078352;28;20796;-87
2023/12/30 01:46:32;;;;;;;8.73;1.80;;;;;;;;;;5099496;28;20407;-85
2023/12/30 01:49:01;;;;;;;8.55;1.88;;;;;;;;;;5096774;28;20489;-87
2023/12/30 01:51:34;;;;;;;8.23;1.90;;;;;;;;;;5082277;28;20429;-87
2023/12/30 01:54:00;;;;;;;13.40;2.30;;;;;;;;;;5100398;28;20407;-87
2023/12/30 01:56:32;;;;;;;7.72;1.80;;;;;;;;;;5107703;28;20471;-86
2023/12/30 01:58:59;;;;;;;7.47;1.90;;;;;;;;;;5096199;27;20492;-87
2023/12/30 02:01:32;;;;;;;9.68;2.05;;;;;;;;;;5097669;28;20396;-87
2023/12/30 02:04:04;;;;;;;8.20;2.35;;;;;;;;;;5098188;28;20408;-87
2023/12/30 02:06:39;;;;;;;9.07;1.90;;;;;;;;;;5096726;27;20499;-87
2023/12/30 02:09:14;;;;;;;10.43;1.85;;;;;;;;;;5096776;28;20412;-87
2023/12/30 02:11:40;;;;;;;9.10;1.70;;;;;;;;;;5079885;28;20485;-86
2023/12/30 02:14:24;;;;;;;7.32;1.85;;;;;;;;;;5084631;28;20803;-85
2023/12/30 02:17:22;;;;;;;12.90;2.30;;;;;;;;;;5097840;27;20766;-87
2023/12/30 02:19:56;;;;;;;8.52;1.77;;;;;;;;;;5042116;27;20837;-87
2023/12/30 02:22:22;;;;;;;10.05;2.00;;;;;;;;;;5109008;27;20471;-87
2023/12/30 02:24:59;;;;;;;12.68;2.05;;;;;;;;;;5099787;27;20402;-86
2023/12/30 02:27:28;;;;;;;13.02;2.00;;;;;;;;;;5090092;27;20412;-85
2023/12/30 02:30:00;;;;;;;12.75;2.10;;;;;;;;;;5068975;28;20428;-87
2023/12/30 02:32:26;;;;;;;8.93;1.98;;;;;;;;;;5088502;27;20498;-86
2023/12/30 02:34:52;;;;;;;12.38;2.20;;;;;;;;;;5096351;28;20903;-87
2023/12/30 02:37:24;;;;;;;11.57;2.10;;;;;;;;;;5081527;27;20473;-87
2023/12/30 02:39:50;;;;;;;8.55;1.70;;;;;;;;;;5090571;27;20892;-86
2023/12/30 02:42:20;;;;;;;11.80;2.40;;;;;;;;;;5099429;27;20409;-86
2023/12/30 02:44:46;;;;;;;8.88;2.25;;;;;;;;;;5116374;27;20891;-86
2023/12/30 02:47:12;;;;;;;8.05;1.70;;;;;;;;;;5078401;27;20444;-85
2023/12/30 02:49:41;;;;;;;8.93;2.20;;;;;;;;;;5079126;27;20419;-86
2023/12/30 02:52:07;;;;;;;10.50;2.10;;;;;;;;;;5098683;27;20427;-86
2023/12/30 02:54:35;;;;;;;7.72;1.70;;;;;;;;;;5130942;27;20799;-87
2023/12/30 02:57:02;;;;;;;9.43;1.90;;;;;;;;;;5116418;27;20797;-86
2023/12/30 02:59:31;;;;;;;11.38;1.92;;;;;;;;;;5103580;28;20899;-86
2023/12/30 03:01:58;;;;;;;9.50;2.10;;;;;;;;;;5104932;28;20403;-86
2023/12/30 03:04:24;;;;;;;9.85;2.50;;;;;;;;;;5085445;27;20486;-86
2023/12/30 03:06:50;;;;;;;11.80;2.72;;;;;;;;;;5116056;27;20399;-86
2023/12/30 03:09:16;;;;;;;8.50;1.90;;;;;;;;;;5100277;28;20411;-87
2023/12/30 03:11:51;;;;;;;12.98;2.22;;;;;;;;;;5083383;27;20420;-86
2023/12/30 03:14:20;;;;;;;12.77;2.33;;;;;;;;;;5106513;27;20406;-86
2023/12/30 03:16:58;;;;;;;12.45;2.10;;;;;;;;;;5115804;27;20394;-86
2023/12/30 03:19:30;;;;;;;11.88;2.33;;;;;;;;;;5095999;27;20464;-86
2023/12/30 03:21:57;;;;;;;10.38;2.20;;;;;;;;;;5095181;27;20402;-86
2023/12/30 03:24:23;;;;;;;12.15;2.20;;;;;;;;;;5070339;28;20977;-86
2023/12/30 03:26:53;;;;;;;9.85;1.98;;;;;;;;;;5107500;28;20427;-85
2023/12/30 03:29:45;;;;;;;10.00;2.20;;;;;;;;;;5104889;27;20820;-86
2023/12/30 03:32:17;;;;;;;11.80;2.28;;;;;;;;;;5083940;27;20434;-86
2023/12/30 03:34:44;;;;;;;10.13;2.13;;;;;;;;;;5121356;27;20415;-86
2023/12/30 03:37:16;;;;;;;13.20;2.40;;;;;;;;;;5102708;27;20406;-86
2023/12/30 03:39:51;;;;;;;11.47;2.10;;;;;;;;;;5113905;27;20399;-85
2023/12/30 03:42:41;;;;;;;11.57;2.65;;;;;;;;;;5113181;27;20433;-86
2023/12/30 03:45:13;;;;;;;10.45;1.98;;;;;;;;;;5099236;27;20406;-86
2023/12/30 03:47:39;;;;;;;10.77;2.50;;;;;;;;;;5095189;27;20412;-85
2023/12/30 03:50:26;;;;;;;8.93;2.10;;;;;;;;;;5082115;27;20411;-85
2023/12/30 03:53:05;;;;;;;11.45;2.25;;;;;;;;;;5113126;27;20406;-85
2023/12/30 03:55:36;;;;;;;12.68;2.15;;;;;;;;;;5108918;28;20868;-85
2023/12/30 03:58:02;;;;;;;12.18;2.40;;;;;;;;;;5077805;28;20884;-85
2023/12/30 04:00:34;;;;;;;14.10;2.25;;;;;;;;;;5082972;27;20463;-85
2023/12/30 04:03:00;;;;;;;11.10;2.70;;;;;;;;;;5088189;27;20900;-85
2023/12/30 04:05:29;;;;;;;10.93;2.20;;;;;;;;;;5096242;27;20403;-85
2023/12/30 04:07:56;;;;;;;10.82;2.42;;;;;;;;;;5097879;27;20478;-85
2023/12/30 04:10:31;;;;;;;10.77;2.10;;;;;;;;;;5097827;27;20423;-85
2023/12/30 04:13:06;;;;;;;9.60;2.43;;;;;;;;;;5076741;28;20485;-85
2023/12/30 04:15:44;;;;;;;14.95;3.03;;;;;;;;;;5100542;27;20483;-85
2023/12/30 04:18:13;;;;;;;10.90;2.28;;;;;;;;;;5089933;27;20410;-84
2023/12/30 04:20:42;;;;;;;11.40;2.55;;;;;;;;;;5097919;27;20394;-84
2023/12/30 04:23:08;;;;;;;16.02;2.90;;;;;;;;;;5095426;27;20396;-84
2023/12/30 04:25:35;;;;;;;11.60;2.20;;;;;;;;;;5111651;27;20654;-85
2023/12/30 04:28:03;;;;;;;9.73;2.13;;;;;;;;;;5099718;27;20399;-83
2023/12/30 04:30:32;;;;;;;16.13;2.55;;;;;;;;;;5080005;28;20959;-84
2023/12/30 04:33:13;;;;;;;;;;;;;;;;;;;;;
2023/12/30 04:35:42;;;;;;;9.77;2.35;;;;;;;;;;5058058;28;20406;-84
2023/12/30 04:38:11;;;;;;;12.40;2.67;;;;;;;;;;5050692;28;20992;-85
2023/12/30 04:40:43;;;;;;;10.88;2.20;;;;;;;;;;5060694;28;21029;-85
2023/12/30 04:43:12;;;;;;;11.40;2.35;;;;;;;;;;5049577;28;20410;-84
2023/12/30 04:45:38;;;;;;;9.77;2.50;;;;;;;;;;5067129;28;20402;-84
2023/12/30 04:48:11;;;;;;;10.73;2.10;;;;;;;;;;5053153;28;20760;-84
2023/12/30 04:50:37;;;;;;;12.57;2.40;;;;;;;;;;5008686;28;20430;-84
2023/12/30 04:53:13;;;;;;;9.07;2.13;;;;;;;;;;5046280;28;20402;-84
2023/12/30 04:55:45;;;;;;;11.30;2.50;;;;;;;;;;5033938;28;20410;-84
2023/12/30 04:58:11;;;;;;;14.57;2.20;;;;;;;;;;5061476;28;20400;-84
2023/12/30 05:00:40;;;;;;;15.03;2.50;;;;;;;;;;5035547;28;20438;-84
2023/12/30 05:03:06;;;;;;;11.15;2.00;;;;;;;;;;5047901;28;20455;-84
2023/12/30 05:05:41;;;;;;;11.02;1.90;;;;;;;;;;5042875;28;20423;-84
2023/12/30 05:08:07;;;;;;;11.77;2.35;;;;;;;;;;5083364;28;20410;-84
2023/12/30 05:10:42;;;;;;;13.45;2.25;;;;;;;;;;5131928;28;20471;-84
2023/12/30 05:13:11;;;;;;;9.77;2.22;;;;;;;;;;5085456;28;20469;-84
2023/12/30 05:15:37;;;;;;;11.85;2.08;;;;;;;;;;5076549;28;20396;-84
2023/12/30 05:18:11;;;;;;;13.73;2.38;;;;;;;;;;5097070;28;20495;-84
2023/12/30 05:20:37;;;;;;;12.80;2.25;;;;;;;;;;5093435;28;20400;-84
2023/12/30 05:23:18;;;;;;;10.27;2.20;;;;;;;;;;5093807;28;20431;-86
2023/12/30 05:25:48;;;;;;;12.40;2.08;;;;;;;;;;5103517;28;20933;-84
2023/12/30 05:28:20;;;;;;;10.67;2.43;;;;;;;;;;5088632;28;20420;-84
2023/12/30 05:33:51;;;;;;;12.30;2.10;;;;;;;;;;5093108;28;20457;-85
2023/12/30 05:36:17;;;;;;;12.15;2.00;;;;;;;;;;5082471;28;20399;-85
2023/12/30 05:38:46;;;;;;;10.20;2.20;;;;;;;;;;5092976;28;20880;-85
2023/12/30 05:41:12;;;;;;;11.80;2.30;;;;;;;;;;5107433;28;20431;-84
2023/12/30 05:43:54;;;;;;;12.23;2.20;;;;;;;;;;5124011;28;21006;-85
2023/12/30 05:46:20;;;;;;;11.17;2.57;;;;;;;;;;5076064;28;20412;-84
2023/12/30 05:48:55;;;;;;;12.77;2.90;;;;;;;;;;5083072;28;20734;-85
2023/12/30 05:51:22;;;;;;;11.87;2.00;;;;;;;;;;5076426;28;20424;-85
2023/12/30 05:53:53;;;;;;;15.15;2.90;;;;;;;;;;5096281;27;20402;-85
2023/12/30 05:56:23;;;;;;;11.40;2.38;;;;;;;;;;5085370;28;20481;-84
2023/12/30 05:58:56;;;;;;;11.40;2.58;;;;;;;;;;5089129;28;20464;-84
2023/12/30 06:01:23;;;;;;;13.23;2.53;;;;;;;;;;5089497;28;20532;-84
2023/12/30 06:04:04;;;;;;;12.45;2.30;;;;;;;;;;5091850;27;20475;-84
2023/12/30 06:07:05;;;;;;;9.68;2.28;;;;;;;;;;5110648;27;20473;-85
2023/12/30 06:09:46;;;;;;;14.55;2.60;;;;;;;;;;5093339;27;20820;-84
2023/12/30 06:12:15;;;;;;;15.20;2.83;;;;;;;;;;5106057;27;20445;-85
2023/12/30 06:14:47;;;;;;;15.02;2.70;;;;;;;;;;5115150;27;20475;-84
2023/12/30 06:17:16;;;;;;;13.77;2.30;;;;;;;;;;5099262;27;20399;-85
2023/12/30 06:19:51;;;;;;;15.88;2.58;;;;;;;;;;5078802;27;20880;-85
2023/12/30 06:22:17;;;;;;;12.57;2.58;;;;;;;;;;5096292;28;20404;-86
2023/12/30 06:25:12;;;;;;;14.37;2.70;;;;;;;;;;5058797;27;20523;-85
2023/12/30 06:27:48;;;;;;;11.40;2.88;;;;;;;;;;5099006;27;20403;-86
2023/12/30 06:30:17;;;;;;;11.18;2.30;;;;;;;;;;5091696;27;20424;-86
2023/12/30 06:32:46;;;;;;;13.00;2.47;;;;;;;;;;5115632;27;20410;-85
2023/12/30 06:35:18;;;;;;;12.05;2.35;;;;;;;;;;5107792;27;20406;-85
2023/12/30 06:37:44;;;;;;;14.30;2.87;;;;;;;;;;5097821;27;20402;-86
2023/12/30 06:40:10;;;;;;;12.68;2.70;;;;;;;;;;5099300;27;20874;-86
2023/12/30 06:42:40;;;;;;;11.00;2.65;;;;;;;;;;5098096;27;20408;-86
2023/12/30 06:45:09;;;;;;;15.48;2.83;;;;;;;;;;5084184;28;20412;-86
2023/12/30 06:47:39;;;;;;;13.68;2.80;;;;;;;;;;5095762;28;20401;-85
2023/12/30 06:50:08;;;;;;;13.15;2.70;;;;;;;;;;5084011;27;20495;-85
2023/12/30 06:52:34;;;;;;;11.07;2.42;;;;;;;;;;5085373;28;20408;-84
2023/12/30 06:55:00;;;;;;;11.93;2.65;;;;;;;;;;5095521;28;20405;-84
2023/12/30 06:57:44;;;;;;;8.82;2.10;;;;;;;;;;5095969;28;20999;-84
2023/12/30 07:00:32;;;;;;;11.88;2.50;;;;;;;;;;5051368;28;20846;-85
2023/12/30 07:02:58;;;;;;;10.82;2.33;;;;;;;;;;5048617;28;20498;-84
2023/12/30 07:05:24;;;;;;;10.45;2.20;;;;;;;;;;5016917;28;20423;-86
2023/12/30 07:07:50;;;;;;;15.90;2.90;;;;;;;;;;5050736;28;20396;-85
2023/12/30 07:10:17;;;;;;;9.80;2.33;;;;;;;;;;5033975;28;20417;-85
2023/12/30 07:12:48;;;;;;;10.87;3.00;;;;;;;;;;5055112;28;21126;-85
2023/12/30 07:15:14;;;;;;;14.10;3.00;;;;;;;;;;5017560;28;20487;-85
2023/12/30 07:17:44;;;;;;;15.05;2.70;;;;;;;;;;5046118;27;20403;-91
2023/12/30 07:20:15;;;;;;;13.98;2.50;;;;;;;;;;5112794;27;20410;-86
2023/12/30 07:22:42;;;;;;;15.57;2.60;;;;;;;;;;5095989;28;20962;-86
2023/12/30 07:25:10;;;;;;;14.65;2.70;;;;;;;;;;5079130;28;20393;-87
2023/12/30 07:27:37;;;;;;;9.70;2.38;;;;;;;;;;5095600;28;20427;-85
2023/12/30 07:30:04;;;;;;;11.52;2.78;;;;;;;;;;5078138;28;20415;-85
2023/12/30 07:32:38;;;;;;;9.45;2.30;;;;;;;;;;5078431;28;20524;-85
2023/12/30 07:35:05;;;;;;;10.05;2.40;;;;;;;;;;5079046;28;20760;-84
2023/12/30 07:37:32;;;;;;;9.65;2.10;;;;;;;;;;5085280;27;20528;-85
2023/12/30 07:40:05;;;;;;;11.68;2.40;;;;;;;;;;5082988;28;20407;-85
2023/12/30 07:42:32;;;;;;;15.02;2.70;;;;;;;;;;5078259;28;20393;-85
2023/12/30 07:44:58;;;;;;;12.70;2.67;;;;;;;;;;5078918;28;20403;-85
2023/12/30 07:47:34;;;;;;;11.40;2.40;;;;;;;;;;5116238;27;20416;-85
2023/12/30 07:50:00;;;;;;;12.68;2.25;;;;;;;;;;5079851;28;20413;-85
2023/12/30 07:52:26;;;;;;;14.43;2.80;;;;;;;;;;5125991;27;21025;-85
2023/12/30 07:54:53;;;;;;;8.18;2.38;;;;;;;;;;5085763;27;20418;-85
2023/12/30 07:57:20;;;;;;;19.27;3.10;;;;;;;;;;5079947;28;20416;-86
2023/12/30 07:59:46;;;;;;;9.57;2.30;;;;;;;;;;5088412;27;20940;-86
2023/12/30 08:02:12;;;;;;;13.63;2.10;;;;;;;;;;5099256;27;20403;-86
2023/12/30 08:04:42;;;;;;;15.30;2.58;;;;;;;;;;5099100;27;20886;-86
2023/12/30 08:07:08;;;;;;;12.73;2.78;;;;;;;;;;5098285;27;20781;-86
2023/12/30 08:09:37;;;;;;;9.05;2.75;;;;;;;;;;5095757;28;20396;-85
2023/12/30 08:12:04;;;;;;;12.85;2.33;;;;;;;;;;5086958;28;20416;-86
2023/12/30 08:14:48;;;;;;;16.58;2.95;;;;;;;;;;5080462;28;20397;-85
2023/12/30 08:17:15;;;;;;;15.50;2.65;;;;;;;;;;5082210;27;20957;-84
2023/12/30 08:19:41;;;;;;;13.15;2.85;;;;;;;;;;5113791;27;20396;-86
2023/12/30 08:22:12;;;;;;;12.10;2.80;;;;;;;;;;5077728;28;22006;-85
2023/12/30 08:24:38;;;;;;;13.70;2.75;;;;;;;;;;5107166;28;20400;-85
2023/12/30 08:27:05;;;;;;;14.55;2.40;;;;;;;;;;5094245;28;20413;-84
2023/12/30 08:29:31;;;;;;;16.25;2.70;;;;;;;;;;5097385;27;20504;-84
2023/12/30 08:32:00;;;;;;;10.68;2.85;;;;;;;;;;5080392;28;20502;-85
2023/12/30 08:34:27;;;;;;;13.52;2.75;;;;;;;;;;5094953;28;20407;-85
2023/12/30 08:36:57;;;;;;;12.93;2.83;;;;;;;;;;5094415;28;20442;-85
2023/12/30 08:39:24;;;;;;;18.08;3.00;;;;;;;;;;5081526;28;20392;-84
2023/12/30 08:41:50;;;;;;;13.90;2.83;;;;;;;;;;5077786;28;20407;-84
2023/12/30 08:44:16;;;;;;;14.73;3.03;;;;;;;;;;5069493;28;20783;-85
2023/12/30 08:46:45;;;;;;;12.50;2.60;;;;;;;;;;5080637;28;20408;-84
2023/12/30 08:49:14;;;;;;;14.40;3.25;;;;;;;;;;5082117;28;20919;-85
2023/12/30 08:51:43;;;;;;;13.85;3.00;;;;;;;;;;5081254;28;20422;-85
2023/12/30 08:54:09;;;;;;;15.97;3.03;;;;;;;;;;5083625;28;20417;-84
2023/12/30 08:56:35;;;;;;;16.88;2.60;;;;;;;;;;5071679;28;20419;-85
2023/12/30 08:59:01;;;;;;;12.38;2.53;;;;;;;;;;5083227;28;20923;-85
2023/12/30 09:01:28;;;;;;;16.92;3.03;;;;;;;;;;5076600;28;20427;-86
2023/12/30 09:03:54;;;;;;;12.80;2.35;;;;;;;;;;5077937;28;20426;-85
2023/12/30 09:06:21;;;;;;;13.60;2.83;;;;;;;;;;5113116;28;20439;-84
2023/12/30 09:08:47;;;;;;;12.40;2.97;;;;;;;;;;5083179;28;20422;-84
2023/12/30 09:11:23;;;;;;;10.00;2.70;;;;;;;;;;5077606;28;20420;-85
2023/12/30 09:13:51;;;;;;;12.80;3.22;;;;;;;;;;5105269;28;20402;-83
2023/12/30 09:16:17;;;;;;;12.30;2.88;;;;;;;;;;5084186;28;20420;-82
2023/12/30 09:18:43;;;;;;;13.02;2.95;;;;;;;;;;5088168;28;20902;-83
2023/12/30 09:21:09;;;;;;;11.93;2.50;;;;;;;;;;5093957;28;20878;-83
2023/12/30 09:23:37;;;;;;;11.63;2.70;;;;;;;;;;5075536;28;20879;-86
2023/12/30 09:26:06;;;;;;;11.60;2.20;;;;;;;;;;5089123;28;20404;-87
2023/12/30 09:28:33;;;;;;;13.23;2.30;;;;;;;;;;5076433;28;20412;-85
2023/12/30 09:31:00;;;;;;;14.20;2.75;;;;;;;;;;5098861;27;20426;-85
2023/12/30 09:33:28;;;;;;;13.77;2.53;;;;;;;;;;5088680;28;20392;-85
2023/12/30 09:35:54;;;;;;;12.55;2.47;;;;;;;;;;5094027;27;20455;-86
2023/12/30 09:38:23;;;;;;;12.57;2.50;;;;;;;;;;5098430;27;20803;-85
2023/12/30 09:40:51;;;;;;;12.73;2.67;;;;;;;;;;5101835;27;20409;-87
2023/12/30 09:46:43;;;;;;;9.98;2.10;;;;;;;;;;5103911;27;20394;-88
2023/12/30 09:49:26;;;;;;;11.67;2.50;;;;;;;;;;5102960;27;20490;-86
2023/12/30 09:52:00;;;;;;;16.53;3.10;;;;;;;;;;5097344;27;20410;-86
2023/12/30 09:54:50;;;;;;;13.35;3.00;;;;;;;;;;5107932;27;20479;-87
2023/12/30 09:57:23;;;;;;;8.23;2.30;;;;;;;;;;5098618;27;20418;-87
2023/12/30 09:59:54;;;;;;;10.18;1.90;;;;;;;;;;5102949;27;20391;-85
2023/12/30 10:09:31;;;;;;;11.47;2.30;;;;;;;;;;5126425;27;20416;-86
2023/12/30 10:11:58;;;;;;;9.10;2.05;;;;;;;;;;5094242;27;20423;-83
2023/12/30 10:14:29;;;;;;;13.25;2.30;;;;;;;;;;5093202;28;20485;-84
2023/12/30 10:17:17;;;;;;;12.95;2.72;;;;;;;;;;5088405;28;20835;-84
2023/12/30 10:19:43;;;;;;;9.95;2.15;;;;;;;;;;5088429;27;20416;-83
2023/12/30 10:22:09;;;;;;;8.35;2.30;;;;;;;;;;5097825;28;20802;-84
2023/12/30 10:24:38;;;;;;;8.88;2.20;;;;;;;;;;5082268;28;20447;-85
2023/12/30 10:27:06;;;;;;;13.25;2.55;;;;;;;;;;5082967;28;20432;-85
2023/12/30 10:29:33;;;;;;;13.38;2.53;;;;;;;;;;5096710;27;20960;-85
2023/12/30 10:32:03;;;;;;;17.70;2.10;;;;;;;;;;5089287;28;20430;-85
2023/12/30 10:34:31;;;;;;;14.97;3.03;;;;;;;;;;5095076;28;20539;-86
2023/12/30 10:36:58;;;;;;;12.82;2.47;;;;;;;;;;5086120;28;20745;-86
2023/12/30 10:39:25;;;;;;;11.93;2.50;;;;;;;;;;5086389;28;20397;-87
2023/12/30 10:41:51;;;;;;;12.30;2.07;;;;;;;;;;5088661;28;20896;-87
2023/12/30 10:44:18;;;;;;;13.23;2.53;;;;;;;;;;5084581;28;20872;-87
2023/12/30 10:46:47;;;;;;;13.43;2.00;;;;;;;;;;5087566;27;20402;-86
2023/12/30 10:49:29;;;;;;;13.93;2.30;;;;;;;;;;5085653;28;20400;-87
2023/12/30 10:51:57;;;;;;;8.90;2.35;;;;;;;;;;5084629;28;20459;-86
2023/12/30 10:54:35;;;;;;;10.70;1.95;;;;;;;;;;5101499;27;20391;-87
2023/12/30 10:57:19;;;;;;;11.25;2.35;;;;;;;;;;5095250;28;20442;-87
2023/12/30 10:59:52;;;;;;;11.90;1.92;;;;;;;;;;5110525;27;20426;-86
2023/12/30 11:02:21;;;;;;;10.23;2.00;;;;;;;;;;5084254;28;20775;-86
2023/12/30 11:05:03;;;;;;;12.82;2.25;;;;;;;;;;5100073;28;20458;-86
2023/12/30 11:07:29;;;;;;;8.80;1.90;;;;;;;;;;5101869;27;20444;-87
2023/12/30 11:09:57;;;;;;;12.98;2.60;;;;;;;;;;5085825;27;20442;-85
2023/12/30 11:12:28;;;;;;;14.83;2.40;;;;;;;;;;5099412;28;20421;-85
2023/12/30 11:14:55;;;;;;;12.38;2.47;;;;;;;;;;5092142;27;20817;-85
2023/12/30 11:17:34;;;;;;;10.90;2.70;;;;;;;;;;5079898;27;20882;-85
2023/12/30 11:20:30;;;;;;;12.35;2.90;;;7.40;99.90;;;;;;5085583;27;20414;-86
2023/12/30 11:23:07;;;;;;;9.18;2.53;;;;;;;;;;5096488;27;20419;-86
2023/12/30 11:25:41;;;;;;;12.70;3.07;;;;;;;;;;5065256;28;20396;-85
2023/12/30 11:28:18;;;;;;;8.53;2.63;;;;;;;;;;5081172;28;20478;-85
2023/12/30 11:30:57;;;;;;;12.60;2.70;;;;;;;;;;5085357;27;20451;-86
2023/12/30 11:33:23;;;;;;;11.00;2.65;;;;;;;;;;5085983;28;20462;-86
2023/12/30 11:36:00;;;;;;;11.25;2.58;;;;;;;;;;5091601;27;20510;-85
2023/12/30 11:38:30;;;;;;;10.77;2.67;;;;;;;;;;5085849;27;20420;-86
2023/12/30 11:41:01;;;;;;;14.57;2.40;;;;;;;;;;5098975;27;20410;-83
2023/12/30 11:43:27;;;;;;;12.03;2.60;;;;;;;;;;5074953;27;20402;-86
2023/12/30 11:45:55;;;;;;;8.43;2.25;;;;;;;;;;5084345;27;20408;-86
2023/12/30 11:48:30;;;;;;;9.75;2.42;;;;;;;;;;5098036;27;20402;-86
2023/12/30 11:50:56;;;;;;;8.52;2.35;;;;;;;;;;5110532;27;20549;-86
2023/12/30 11:53:38;;;;;;;8.82;1.70;;;;;;;;;;5108866;28;20742;-86
2023/12/30 11:56:04;;;;;;;11.32;2.38;;;;;;;;;;5086238;28;20595;-85
2023/12/30 11:58:31;;;;;;;9.30;2.43;;;;;;;;;;5085737;27;20414;-84
2023/12/30 12:01:01;;;;;;;9.80;2.58;;;;;;;;;;5087738;27;20424;-86
2023/12/30 12:03:33;;;;;;;9.55;2.58;;;;;;;;;;5094681;27;20491;-85
2023/12/30 12:06:02;;;;;;;10.48;2.40;;;;;;;;;;5095149;27;20401;-85
2023/12/30 12:08:28;;;;;;;10.53;2.00;;;;;;;;;;5113488;27;20764;-86
2023/12/30 12:10:55;;;;;;;11.53;2.10;;;;;;;;;;5082934;28;20424;-85
2023/12/30 12:13:29;;;;;;;10.70;2.05;;;;;;;;;;5090191;27;22877;-85
2023/12/30 12:16:04;;;;;;;12.68;2.47;;;;;;;;;;5090907;28;20893;-85
2023/12/30 12:18:32;;;;;;;16.77;2.58;;;;;;;;;;5105551;27;20425;-85
2023/12/30 12:20:59;;;;;;;9.50;2.13;;;;;;;;;;5096446;28;20439;-88
2023/12/30 12:23:34;;;;;;;12.93;2.70;;;;;;;;;;5090313;28;20400;-87
2023/12/30 12:26:01;;;;;;;16.13;4.18;;;;;;;;;;5082963;28;20412;-85
2023/12/30 12:28:27;;;;;;;17.60;7.20;;;;;;;;;;5094925;28;20400;-86
2023/12/30 12:30:56;;;;;;;12.90;3.25;;;;;;;;;;5083444;28;20417;-83
2023/12/30 12:33:29;;;;;;;11.98;3.53;;;;;;;;;;5095429;28;20411;-86
2023/12/30 12:35:58;;;;;;;18.98;7.45;;;;;;;;;;5092563;27;20386;-87
2023/12/30 12:38:27;;;;;;;10.88;3.60;;;;;;;;;;5095074;28;20395;-87
2023/12/30 12:40:53;;;;;;;13.68;2.10;;;;;;;;;;5087482;28;20408;-87
2023/12/30 12:43:19;;;;;;;12.90;2.40;;;;;;;;;;5074401;28;20412;-87
2023/12/30 12:45:48;;;;;;;10.45;2.67;;;;;;;;;;5109481;28;20462;-87
2023/12/30 12:48:15;;;;;;;15.75;2.80;;;;;;;;;;5092738;28;20439;-87
2023/12/30 12:51:24;;;;;;;13.43;3.00;;;;;;;;;;5109088;28;20463;-90
2023/12/30 12:54:15;;;;;;;11.65;2.65;;;;;;;;;;5095402;28;20455;-89
2023/12/30 12:57:09;;;;;;;12.60;2.53;;;;;;;;;;5093864;28;20445;-88
2023/12/30 12:59:39;;;;;;;17.83;2.70;;;;;;;;;;5087283;28;20412;-90
2023/12/30 13:02:08;;;;;;;10.25;2.10;;;;;;;;;;5086626;28;20420;-89
2023/12/30 13:04:51;;;;;;;10.40;2.80;;;;;;;;;;5104150;28;20407;-88
2023/12/30 13:07:17;;;;;;;11.32;3.00;;;;;;;;;;5081968;28;20411;-84
2023/12/30 13:10:09;;;;;;;12.05;3.30;;;;;;;;;;5092674;27;20938;-85
2023/12/30 13:12:39;;;;;;;12.70;2.80;;;;;;;;;;5104223;27;20427;-89
2023/12/30 13:15:12;;;;;;;16.48;2.97;;;;;;;;;;5089005;27;20427;-88
2023/12/30 13:17:44;;;;;;;12.67;3.20;;;;;;;;;;5104420;27;20726;-84
2023/12/30 13:20:10;;;;;;;9.57;2.38;;;;;;;;;;5081568;28;20399;-84
2023/12/30 13:22:37;;;;;;;13.48;3.38;;;;;;;;;;5100910;28;20396;-84
2023/12/30 13:25:05;;;;;;;13.02;3.05;;;;;;;;;;5088866;28;20862;-82
2023/12/30 13:27:31;;;;;;;16.40;3.15;;;;;;;;;;5083857;28;20413;-81
2023/12/30 13:29:57;;;;;;;12.23;2.95;;;;;;;;;;5089921;27;20420;-81
2023/12/30 13:32:27;;;;;;;11.27;3.00;;;;;;;;;;5083800;27;20423;-80
2023/12/30 13:34:55;;;;;;;17.33;2.78;;;;;;;;;;5080389;28;20911;-81
2023/12/30 13:37:22;;;;;;;12.97;2.60;;;;;;;;;;5103282;28;20392;-81
2023/12/30 13:39:48;;;;;;;12.15;3.08;;;;;;;;;;5108447;27;20390;-81
2023/12/30 13:42:15;;;;;;;12.70;3.20;;;;;;;;;;5092409;27;20568;-81
2023/12/30 13:44:42;;;;;;;14.60;3.03;;;;;;;;;;5125750;27;20792;-82
2023/12/30 13:52:38;;;;;;;14.38;3.40;;;;;;;;;;5109453;27;20419;-82
2023/12/30 13:55:17;;;;;;;15.70;3.40;;;;;;;;;;5106562;27;20407;-81
2023/12/30 13:57:45;;;;;;;16.00;3.38;;;;;;;;;;5097880;27;20397;-81
2023/12/30 14:00:13;;;;;;;12.48;2.97;;;;;;;;;;5125607;27;20473;-80
2023/12/30 14:02:40;;;;;;;11.77;2.85;;;;;;;;;;5106023;27;20503;-80
2023/12/30 14:05:16;;;;;;;15.95;3.53;;;;;;;;;;5099900;27;20917;-81
2023/12/30 14:07:43;;;;;;;11.90;3.03;;;;;;;;;;5118845;27;20416;-82
2023/12/30 14:10:11;;;;;;;11.20;3.10;;;;;;;;;;5082508;27;20404;-82
2023/12/30 14:12:39;;;;;;;14.98;2.95;;;;;;;;;;5130829;27;20419;-81
2023/12/30 14:15:11;;;;;;;21.52;4.65;;;;;;;;;;5098991;28;20802;-82
2023/12/30 14:17:37;;;;;;;15.10;3.53;;;;;;;;;;5084453;27;20399;-81
2023/12/30 14:20:04;;;;;;;15.47;3.27;;;;;;;;;;5121628;27;20872;-81
2023/12/30 14:22:34;;;;;;;13.40;3.33;;;;;;;;;;5102464;27;20454;-81
2023/12/30 14:25:00;;;;;;;12.73;3.20;;;;;;;;;;5103890;27;20416;-80
2023/12/30 14:27:26;;;;;;;15.80;3.63;;;;;;;;;;5104084;27;20408;-80
2023/12/30 14:29:54;;;;;;;14.52;3.85;;;;;;;;;;5102194;27;20412;-81
2023/12/30 14:32:22;;;;;;;16.42;3.42;;;;;;;;;;5105942;28;20419;-81
2023/12/30 14:34:48;;;;;;;20.48;4.30;;;;;;;;;;5118890;27;21081;-80
2023/12/30 14:37:15;;;;;;;17.08;3.92;;;;;;;;;;5079591;28;20396;-80
2023/12/30 14:39:41;;;;;;;18.88;4.72;;;;;;;;;;5095937;27;20400;-81
2023/12/30 14:42:07;;;;;;;17.55;3.83;;;;;;;;;;5111032;27;20475;-81
2023/12/30 14:44:33;;;;;;;19.33;4.40;;;;;;;;;;5096704;28;20420;-81
2023/12/30 14:47:00;;;;;;;15.80;4.45;;;;;;;;;;5112241;27;20988;-80
2023/12/30 14:49:27;;;;;;;17.67;5.03;;;;;;;;;;5099228;27;20547;-82
2023/12/30 14:51:53;;;;;;;15.48;4.22;;;;;;;;;;5092142;28;20420;-81
2023/12/30 14:54:19;;;;;;;20.55;4.80;;;;;;;;;;5130985;27;20421;-79
2023/12/30 14:56:45;;;;;;;18.48;4.85;;;;;;;;;;5099065;28;20400;-82
2023/12/30 14:59:11;;;;;;;15.80;5.18;;;;;;;;;;5106130;27;20402;-81
2023/12/30 15:01:37;;;;;;;22.27;5.30;;;;;;;;;;5106994;27;20474;-83
2023/12/30 15:04:04;;;;;;;19.23;5.20;;;;;;;;;;5088231;28;20725;-82
2023/12/30 15:06:30;;;;;;;20.00;5.63;;;;;;;;;;5096127;28;20408;-84
2023/12/30 15:09:00;;;;;;;18.75;5.35;;;;;;;;;;5095878;28;20473;-83
2023/12/30 15:11:27;;;;;;;20.33;6.38;;;;;;;;;;5078959;28;20512;-81
2023/12/30 15:13:54;;;;;;;20.23;6.82;;;;;;;;;;5131222;27;20399;-81
2023/12/30 15:16:20;;;;;;;21.30;7.13;;;;;;;;;;5096283;27;20475;-81
2023/12/30 15:18:46;;;;;;;25.70;7.47;;;;;;;;;;5110914;27;20406;-81
2023/12/30 15:21:12;;;;;;;23.58;8.90;;;;;;;;;;5090274;27;20463;-81